CheckWX is a tool to help pilots better visualize weather data.  It is not intended as a substitute for an official pre-flight weather briefing.

03:08:53 UTC

KLHB METAR
Hearne Municipal Airport
Hearne, Texas, USA
Current

34 mins ago

KLHB 170235Z AUTO 15005KT 10SM CLR 18/15 A2993 RMK AO2 T01750152
Observed
Feb-17 @ 02:35 UTC
Wind
  • 150° at 5 KTS
Visibility
10 SM
Flight Rules
VFR
Cloud Levels
  • Clear skies
Temperature
18°C / 64°F
Dewpoint
15°C / 59°F
Humidity
83%
Altimeter
29.93" Hg
Pressure
1013.52 hPa
Previous

54 mins ago

KLHB 170215Z AUTO 15005KT 10SM CLR 18/15 A2993 RMK AO2 T01760152
Observed
Feb-17 @ 02:15 UTC
Wind
  • 150° at 5 KTS
Visibility
10 SM
Flight Rules
VFR
Cloud Levels
  • Clear skies
Temperature
18°C / 64°F
Dewpoint
15°C / 59°F
Humidity
83%
Altimeter
29.93" Hg
Pressure
1013.52 hPa
Previous

1 hour ago

KLHB 170155Z AUTO 16008KT 10SM CLR 18/16 A2993 RMK AO2 T01810155
Observed
Feb-17 @ 01:55 UTC
Wind
  • 160° at 8 KTS
Visibility
10 SM
Flight Rules
VFR
Cloud Levels
  • Clear skies
Temperature
18°C / 64°F
Dewpoint
16°C / 61°F
Humidity
88%
Altimeter
29.93" Hg
Pressure
1013.52 hPa